Forside
METAR-TAF:

METAR-TAF

Lufthavne :

Sheboygan County Memorial Airport

Sheboygan, Wisconsin, USA

Breddekreds: 43-46-35N, længdekreds: 087-50-59W, højde: 228 m

Aktuelle vejr

Denne rapport blev lavet for 59 minutter siden, kl. 16:53 UTC
Vind 9 kt fra sydøst med vindstød på up til 17 kt
Temperatur 0°C
Fugtighed 69%
Tryk 1019 hPa
Sigt: 16.1 km
Overskyet i en højde af 6000 ft

METAR: KSBM 171653Z AUTO 14009G17KT 10SM OVC060 00/M05 A3010 RMK AO2 SLP203 T00001050

Tid: 11:52 (17:52 UTC)


TAF: fraværende

Vejrobservationer og prognoser fra mere end 4000 lufthavne (METAR og TAF).

De gule og røde prikker repræsenterer de meteorologiske stationer.

Flyt musen over at se navnet på stationen.

Så klik over at se vejr observationer og prognoser.

At skifte det kort: Klik på de grønne knapper med et sort kors for at zoome ind; på den grønne knap med en bindestreg for at zoome ud; eller på de grønne pile for tilstødende kort.


METAR-TAF: